Time;durP1;ratioP1;P1;durP2;ratioP2;P2;SDS_P1;SDS_P2;PMS_P1;PMS_P2;Temp;Humidity;BMP_temperature;BMP_pressure;BME280_temperature;BME280_humidity;BME280_pressure;Samples;Min_cycle;Max_cycle;Signal;HPM_P1;HPM_P2
2022/05/11 00:00:24;;;;;;;;;;;;;;;21.29;49.77;100962.47;7288607;19;153285;-61
2022/05/11 00:02:51;;;;;;;;;;;;;;;21.29;49.71;100960.50;7288842;19;154083;-59
2022/05/11 00:05:18;;;;;;;;;;;;;;;21.33;49.58;100960.69;7297507;19;151922;-60
2022/05/11 00:07:45;;;;;;;;;;;;;;;21.32;49.55;100961.84;7287361;19;152399;-59
2022/05/11 00:10:12;;;;;;;;;;;;;;;21.36;49.77;100954.44;7288837;19;151664;-60
2022/05/11 00:12:41;;;;;;;;;;;;;;;21.31;49.77;100943.28;7290446;19;152668;-61
2022/05/11 00:15:09;;;;;;;;;;;;;;;21.32;49.81;100933.72;7288079;19;154073;-61
2022/05/11 00:17:36;;;;;;;;;;;;;;;21.28;49.67;100927.06;7288600;19;152084;-61
2022/05/11 00:20:04;;;;;;;;;;;;;;;21.28;49.85;100935.50;7290936;19;153255;-61
2022/05/11 00:22:30;;;;;;;;;;;;;;;21.28;49.92;100927.91;7287771;19;154220;-61
2022/05/11 00:24:57;;;;;;;;;;;;;;;21.25;50.04;100930.53;7290281;19;151792;-61
2022/05/11 00:27:24;;;;;;;;;;;;;;;21.25;49.77;100933.34;7293285;19;153411;-60
2022/05/11 00:29:51;;;;;;;;;;;;;;;21.26;49.96;100934.97;7290381;19;152018;-60
2022/05/11 00:32:18;;;;;;;;;;;;;;;21.28;49.96;100936.34;7289646;19;152745;-59
2022/05/11 00:34:45;;;;;;;;;;;;;;;21.27;50.17;100934.66;7288989;19;153598;-61
2022/05/11 00:37:12;;;;;;;;;;;;;;;21.28;49.98;100941.97;7289432;19;151727;-60
2022/05/11 00:39:39;;;;;;;;;;;;;;;21.29;49.97;100954.03;7288586;19;152710;-59
2022/05/11 00:42:06;;;;;;;;;;;;;;;21.29;50.51;100954.03;7285957;19;154129;-60
2022/05/11 00:44:33;;;;;;;;;;;;;;;21.30;50.22;100939.66;7289539;19;151682;-60
2022/05/11 00:47:07;;;;;;;;;;;;;;;21.29;49.94;100948.41;7293559;19;152723;-58
2022/05/11 00:49:38;;;;;;;;;;;;;;;21.25;50.40;100938.94;7289839;19;151483;-59
2022/05/11 00:52:05;;;;;;;;;;;;;;;21.26;50.72;100933.00;7286619;19;152591;-60
2022/05/11 00:54:35;;;;;;;;;;;;;;;21.30;50.53;100924.78;7288042;19;154010;-60
2022/05/11 00:57:05;;;;;;;;;;;;;;;21.29;50.52;100931.56;7285201;19;151809;-60
2022/05/11 00:59:33;;;;;;;;;;;;;;;21.32;50.71;100927.28;7285197;19;151925;-59
2022/05/11 01:02:04;;;;;;;;;;;;;;;21.29;50.83;100925.94;7287100;19;153148;-59
2022/05/11 01:04:32;;;;;;;;;;;;;;;21.30;50.35;100934.03;7289227;19;151938;-59
2022/05/11 01:07:01;;;;;;;;;;;;;;;21.30;50.87;100924.78;7288485;19;153587;-61
2022/05/11 01:09:28;;;;;;;;;;;;;;;21.33;50.95;100918.53;7295722;19;153760;-59
2022/05/11 01:11:57;;;;;;;;;;;;;;;21.29;50.69;100921.16;7284288;19;152208;-60
2022/05/11 01:14:27;;;;;;;;;;;;;;;21.29;51.20;100918.34;7285924;19;153622;-60
2022/05/11 01:16:55;;;;;;;;;;;;;;;21.25;51.24;100908.03;7288739;19;151846;-60
2022/05/11 01:19:25;;;;;;;;;;;;;;;21.27;51.32;100908.53;7288834;19;153410;-60
2022/05/11 01:21:57;;;;;;;;;;;;;;;21.24;51.08;100904.41;7286320;19;154413;-60
2022/05/11 01:24:33;;;;;;;;;;;;;;;21.24;51.16;100906.38;7285098;19;152278;-59
2022/05/11 01:27:20;;;;;;;;;;;;;;;21.29;51.15;100914.69;7289250;19;152315;-60
2022/05/11 01:29:46;;;;;;;;;;;;;;;21.24;51.16;100904.41;7282399;19;152440;-59
2022/05/11 01:32:12;;;;;;;;;;;;;;;21.21;51.09;100910.63;7297041;19;152758;-59
2022/05/11 01:34:39;;;;;;;;;;;;;;;21.27;51.49;100914.16;7285654;19;153383;-59
2022/05/11 01:37:06;;;;;;;;;;;;;;;21.26;51.00;100906.88;7288935;19;151962;-59
2022/05/11 01:39:33;;;;;;;;;;;;;;;21.30;51.52;100916.38;7285532;19;154454;-60
2022/05/11 01:42:00;;;;;;;;;;;;;;;21.27;50.89;100898.13;7285582;19;153466;-60
2022/05/11 01:44:27;;;;;;;;;;;;;;;21.28;51.43;100896.16;7286515;19;151939;-60
2022/05/11 01:46:56;;;;;;;;;;;;;;;21.28;50.73;100901.78;7288052;19;153806;-59
2022/05/11 01:49:24;;;;;;;;;;;;;;;21.28;51.03;100902.63;7285393;19;153359;-59
2022/05/11 01:51:52;;;;;;;;;;;;;;;21.28;50.83;100902.63;7288866;19;151597;-59
2022/05/11 01:54:19;;;;;;;;;;;;;;;21.26;50.76;100906.88;7292989;19;153007;-60
2022/05/11 01:56:46;;;;;;;;;;;;;;;21.26;51.06;100906.88;7285420;19;151712;-60
2022/05/11 01:59:13;;;;;;;;;;;;;;;21.23;50.61;100901.88;7287878;19;152509;-59
2022/05/11 02:01:41;;;;;;;;;;;;;;;21.24;51.03;100903.56;7284649;19;153435;-59
2022/05/11 02:09:23;;;;;;;;;;;;;;;21.23;50.78;100857.75;7286917;19;153938;-61
2022/05/11 02:11:50;;;;;;;;;;;;;;;21.23;51.03;100865.34;7287759;19;151726;-59
2022/05/11 02:14:17;;;;;;;;;;;;;;;21.20;50.66;100869.66;7285485;19;152817;-61
2022/05/11 02:16:44;;;;;;;;;;;;;;;21.24;51.16;100883.88;7293513;19;153939;-60
2022/05/11 02:19:11;;;;;;;;;;;;;;;21.27;51.01;100888.88;7281026;19;153445;-60
2022/05/11 02:21:38;;;;;;;;;;;;;;;21.24;50.84;100887.53;7285993;19;154170;-59
2022/05/11 02:24:05;;;;;;;;;;;;;;;21.30;50.97;100889.06;7287619;19;151821;-59
2022/05/11 02:26:33;;;;;;;;;;;;;;;21.27;50.97;100894.50;7287989;19;152696;-59
2022/05/11 02:29:00;;;;;;;;;;;;;;;21.20;50.87;100889.31;7285319;19;153340;-60
2022/05/11 02:31:27;;;;;;;;;;;;;;;21.21;51.33;100890.16;7287439;19;151745;-59
2022/05/11 02:33:53;;;;;;;;;;;;;;;21.21;51.19;100882.53;7285551;19;153960;-60
2022/05/11 02:36:20;;;;;;;;;;;;;;;21.22;50.62;100883.34;7285601;19;154111;-60
2022/05/11 02:38:47;;;;;;;;;;;;;;;21.19;50.61;100889.63;7291328;19;152004;-61
2022/05/11 02:41:15;;;;;;;;;;;;;;;21.15;50.99;100888.59;7284270;19;153272;-59
2022/05/11 02:43:42;;;;;;;;;;;;;;;21.17;50.71;100905.94;7286401;19;151747;-60
2022/05/11 02:46:09;;;;;;;;;;;;;;;21.19;50.47;100903.66;7285196;19;153378;-62
2022/05/11 02:48:36;;;;;;;;;;;;;;;21.16;50.53;100904.31;7282960;19;153404;-60
2022/05/11 02:51:03;;;;;;;;;;;;;;;21.16;50.64;100895.88;7285733;19;151653;-60
2022/05/11 02:53:32;;;;;;;;;;;;;;;21.13;50.92;100888.88;7287173;19;152078;-61
2022/05/11 02:55:59;;;;;;;;;;;;;;;21.12;50.78;100870.31;7283260;19;154226;-61
2022/05/11 02:58:27;;;;;;;;;;;;;;;21.10;50.63;100867.03;7290234;19;151721;-60
2022/05/11 03:00:53;;;;;;;;;;;;;;;21.12;50.97;100861.91;7285757;19;153450;-60
2022/05/11 03:03:21;;;;;;;;;;;;;;;21.14;51.24;100859.66;7287067;19;151749;-59
2022/05/11 03:05:48;;;;;;;;;;;;;;;21.12;51.09;100850.66;7286779;19;153595;-61
2022/05/11 03:08:17;;;;;;;;;;;;;;;21.15;51.31;100860.50;7283970;19;154076;-60
2022/05/11 03:10:44;;;;;;;;;;;;;;;21.15;50.88;100869.75;7284977;19;152011;-60
2022/05/11 03:13:11;;;;;;;;;;;;;;;21.12;50.95;100863.91;7285334;19;152584;-61
2022/05/11 03:15:38;;;;;;;;;;;;;;;21.14;51.21;100872.88;7284089;19;153494;-60
2022/05/11 03:18:04;;;;;;;;;;;;;;;21.13;51.25;100877.66;7284163;19;151794;-60
2022/05/11 03:20:31;;;;;;;;;;;;;;;21.11;51.62;100879.09;7289827;19;153442;-59
2022/05/11 03:22:58;;;;;;;;;;;;;;;21.12;51.48;100864.72;7285199;19;151692;-60
2022/05/11 03:25:26;;;;;;;;;;;;;;;21.11;51.65;100867.84;7284363;19;153170;-61
2022/05/11 03:27:53;;;;;;;;;;;;;;;21.09;51.98;100865.34;7284913;19;153721;-60
2022/05/11 03:30:20;;;;;;;;;;;;;;;21.14;52.20;100868.09;7284677;19;152377;-60
2022/05/11 03:35:24;;;;;;;;;;;;;;;21.10;52.64;100857.75;7284066;19;154105;-59
2022/05/11 03:37:50;;;;;;;;;;;;;;;21.14;52.67;100854.03;7284685;19;151584;-59
2022/05/11 03:42:44;;;;;;;;;;;;;;;21.15;52.84;100852.06;7289673;19;152429;-60
2022/05/11 03:45:13;;;;;;;;;;;;;;;21.14;52.89;100858.81;7282534;19;153859;-60
2022/05/11 03:47:40;;;;;;;;;;;;;;;21.09;52.58;100865.34;7284202;19;154042;-60
2022/05/11 03:50:08;;;;;;;;;;;;;;;21.11;52.71;100857.44;7283088;19;151935;-61
2022/05/11 03:52:35;;;;;;;;;;;;;;;21.09;52.72;100851.31;7285302;19;154320;-60
2022/05/11 03:55:02;;;;;;;;;;;;;;;21.11;52.68;100853.81;7279642;19;153971;-59
2022/05/11 03:57:32;;;;;;;;;;;;;;;21.12;52.08;100853.47;7284290;19;152088;-61
2022/05/11 03:59:58;;;;;;;;;;;;;;;21.08;52.72;100831.94;7282068;19;153009;-61
2022/05/11 04:02:25;;;;;;;;;;;;;;;21.10;52.50;100833.31;7283492;19;153809;-60
2022/05/11 04:04:52;;;;;;;;;;;;;;;21.11;52.24;100825.72;7291526;19;151456;-61
2022/05/11 04:07:18;;;;;;;;;;;;;;;21.08;52.54;100829.13;7278589;19;152426;-60
2022/05/11 04:09:45;;;;;;;;;;;;;;;21.11;52.58;100832.16;7284171;19;151963;-60
2022/05/11 04:12:13;;;;;;;;;;;;;;;21.07;52.70;100836.75;7284391;19;152982;-60
2022/05/11 04:14:40;;;;;;;;;;;;;;;21.06;52.28;100848.31;7281926;19;153290;-60
2022/05/11 04:17:07;;;;;;;;;;;;;;;21.09;52.58;100848.50;7282892;19;151995;-61
2022/05/11 04:19:33;;;;;;;;;;;;;;;21.07;52.02;100844.34;7280957;19;151977;-60
2022/05/11 04:22:00;;;;;;;;;;;;;;;21.07;52.00;100833.94;7282882;19;153229;-60
2022/05/11 04:24:28;;;;;;;;;;;;;;;21.13;52.79;100832.69;7281253;19;151658;-60
2022/05/11 04:26:55;;;;;;;;;;;;;;;21.11;51.94;100834.13;7287617;19;151780;-61
2022/05/11 04:29:22;;;;;;;;;;;;;;;21.07;51.81;100825.53;7282120;19;152197;-60
2022/05/11 04:31:54;;;;;;;;;;;;;;;21.07;51.79;100830.31;7285763;19;151863;-59
2022/05/11 04:34:22;;;;;;;;;;;;;;;21.04;51.92;100831.75;7289505;19;155823;-60
2022/05/11 04:36:50;;;;;;;;;;;;;;;21.02;51.86;100834.06;7290945;19;151690;-60
2022/05/11 04:39:17;;;;;;;;;;;;;;;21.05;51.89;100830.59;7288799;19;152764;-60
2022/05/11 04:41:44;;;;;;;;;;;;;;;21.04;52.09;100833.72;7289759;19;154065;-59
2022/05/11 04:44:11;;;;;;;;;;;;;;;21.08;52.55;100831.94;7291757;19;151696;-61
2022/05/11 04:46:38;;;;;;;;;;;;;;;21.02;52.07;100834.06;7291049;19;152847;-60
2022/05/11 04:51:44;;;;;;;;;;;;;;;21.05;52.30;100829.78;7289468;19;154786;-60
2022/05/11 04:54:11;;;;;;;;;;;;;;;21.01;51.79;100828.75;7288394;19;153285;-60
2022/05/11 04:56:38;;;;;;;;;;;;;;;21.05;51.74;100829.78;7288348;19;151866;-61
2022/05/11 04:59:05;;;;;;;;;;;;;;;21.02;52.13;100827.59;7289570;19;153383;-60
2022/05/11 05:01:33;;;;;;;;;;;;;;;21.02;51.83;100827.59;7289278;19;155510;-60
2022/05/11 05:04:00;;;;;;;;;;;;;;;21.00;51.81;100819.47;7290879;19;152087;-60
2022/05/11 05:06:28;;;;;;;;;;;;;;;20.99;52.18;100817.81;7290288;19;153375;-60
2022/05/11 05:08:55;;;;;;;;;;;;;;;21.02;52.09;100814.41;7294334;19;154279;-61
2022/05/11 05:11:22;;;;;;;;;;;;;;;20.96;51.90;100812.84;7290681;19;154592;-60
2022/05/11 05:13:50;;;;;;;;;;;;;;;20.96;51.73;100817.63;7289737;19;155626;-60
2022/05/11 05:16:17;;;;;;;;;;;;;;;20.98;52.17;100812.53;7290757;19;151746;-59
2022/05/11 05:18:42;;;;;;;;;;;;;;;21.00;52.28;100815.84;7288017;19;151807;-59
2022/05/11 05:21:09;;;;;;;;;;;;;;;21.00;51.59;100816.66;7287774;19;153294;-60
2022/05/11 05:23:36;;;;;;;;;;;;;;;20.95;51.71;100807.53;7288766;19;151802;-60
2022/05/11 05:26:03;;;;;;;;;;;;;;;20.93;52.06;100816.28;7289711;19;153970;-61
2022/05/11 05:31:09;;;;;;;;;;;;;;;20.93;51.85;100799.44;7295114;19;151882;-59
2022/05/11 05:33:36;;;;;;;;;;;;;;;20.98;52.12;100804.09;7288215;19;153802;-61
2022/05/11 05:36:03;;;;;;;;;;;;;;;20.98;52.04;100804.94;7289153;19;151760;-60
2022/05/11 05:38:32;;;;;;;;;;;;;;;20.99;52.04;100806.56;7288312;19;153477;-59
2022/05/11 05:40:57;;;;;;;;;;;;;;;20.96;51.65;100801.59;7288699;19;151636;-61
2022/05/11 05:43:24;;;;;;;;;;;;;;;20.97;52.10;100813.66;7287802;19;151740;-60
2022/05/11 05:45:52;;;;;;;;;;;;;;;20.99;52.00;100811.34;7288704;19;152651;-60
2022/05/11 05:48:20;;;;;;;;;;;;;;;21.02;52.00;100816.38;7284435;19;156072;-59
2022/05/11 05:53:19;;;;;;;;;;;;;;;21.12;52.20;100811.34;7293533;19;153350;-60
2022/05/11 05:55:47;;;;;;;;;;;;;;;21.15;52.41;100807.09;7286804;19;151842;-59
2022/05/11 05:58:15;;;;;;;;;;;;;;;21.18;52.36;100803.66;7287469;19;152627;-60
2022/05/11 06:00:42;;;;;;;;;;;;;;;21.23;52.50;100807.19;7284212;19;154587;-59
2022/05/11 06:03:11;;;;;;;;;;;;;;;21.30;52.30;100803.94;7284829;19;152187;-60
2022/05/11 06:05:38;;;;;;;;;;;;;;;21.40;52.19;100798.06;7287265;19;152938;-60
2022/05/11 06:08:08;;;;;;;;;;;;;;;21.48;52.32;100796.50;7283601;19;153341;-61
2022/05/11 06:10:39;;;;;;;;;;;;;;;21.56;51.74;100793.75;7287300;19;152000;-59
2022/05/11 06:13:07;;;;;;;;;;;;;;;21.64;51.50;100792.13;7285331;19;154263;-60
2022/05/11 06:15:35;;;;;;;;;;;;;;;21.71;51.20;100800.97;7292924;19;153479;-61
2022/05/11 06:18:02;;;;;;;;;;;;;;;21.79;51.43;100788.09;7285264;19;152987;-61
2022/05/11 06:20:29;;;;;;;;;;;;;;;21.88;51.44;100786.19;7283506;19;153999;-60
2022/05/11 06:22:54;;;;;;;;;;;;;;;21.93;50.95;100789.72;7285651;19;151671;-60
2022/05/11 06:25:22;;;;;;;;;;;;;;;21.96;50.27;100774.19;7284971;19;154728;-61
2022/05/11 06:27:50;;;;;;;;;;;;;;;22.01;50.24;100790.91;7285658;19;153163;-60
2022/05/11 06:30:17;;;;;;;;;;;;;;;21.78;46.64;100778.84;7286412;19;151579;-60
2022/05/11 06:32:44;;;;;;;;;;;;;;;21.41;46.48;100787.66;7283384;19;152716;-62
2022/05/11 06:35:15;;;;;;;;;;;;;;;21.67;46.86;100777.44;7284615;19;154413;-60
2022/05/11 06:37:42;;;;;;;;;;;;;;;21.78;46.59;100769.56;7294253;19;151823;-62
2022/05/11 06:40:10;;;;;;;;;;;;;;;21.82;46.79;100779.84;7280282;19;153436;-61
2022/05/11 06:42:37;;;;;;;;;;;;;;;21.85;46.70;100787.63;7284250;19;152263;-62
2022/05/11 06:45:05;;;;;;;;;;;;;;;21.93;47.11;100778.47;7285111;19;153481;-61
2022/05/11 06:47:33;;;;;;;;;;;;;;;21.95;47.04;100783.75;7284489;19;153873;-61
2022/05/11 06:50:00;;;;;;;;;;;;;;;21.81;46.55;100771.72;7284824;19;151745;-63
2022/05/11 06:52:27;;;;;;;;;;;;;;;21.86;46.67;100774.41;7284752;19;153522;-60
2022/05/11 07:00:07;;;;;;;;;;;;;;;21.93;46.20;100777.66;7279606;19;152893;-60
2022/05/11 07:02:37;;;;;;;;;;;;;;;21.93;45.81;100766.41;7283874;19;151822;-61
2022/05/11 07:05:05;;;;;;;;;;;;;;;21.92;46.34;100764.69;7279473;19;151922;-62
2022/05/11 07:07:32;;;;;;;;;;;;;;;21.93;46.10;100755.13;7282656;19;153921;-63
2022/05/11 07:09:59;;;;;;;;;;;;;;;21.93;45.66;100755.13;7283457;19;152420;-62
2022/05/11 07:12:35;;;;;;;;;;;;;;;21.91;45.83;100754.59;7285370;19;152627;-63
2022/05/11 07:15:05;;;;;;;;;;;;;;;21.89;46.13;100759.72;7284025;19;153809;-60
2022/05/11 07:17:34;;;;;;;;;;;;;;;21.89;45.84;100759.72;7285251;19;152087;-61
2022/05/11 07:20:03;;;;;;;;;;;;;;;21.87;45.82;100753.56;7287204;19;153291;-62
2022/05/11 07:22:31;;;;;;;;;;;;;;;21.87;46.00;100756.38;7285355;19;151941;-61
2022/05/11 07:24:58;;;;;;;;;;;;;;;21.89;46.07;100748.47;7284004;19;154154;-62
2022/05/11 07:27:25;;;;;;;;;;;;;;;21.96;46.24;100743.22;7281754;19;153458;-64
2022/05/11 07:29:53;;;;;;;;;;;;;;;21.94;46.16;100734.31;7283766;19;151917;-61
2022/05/11 07:32:22;;;;;;;;;;;;;;;21.92;46.35;100745.84;7285438;19;152721;-63
2022/05/11 07:34:50;;;;;;;;;;;;;;;21.93;46.10;100739.09;7280685;19;155087;-62
2022/05/11 07:37:16;;;;;;;;;;;;;;;21.88;45.93;100744.00;7282704;19;151827;-61
2022/05/11 07:39:43;;;;;;;;;;;;;;;21.84;45.90;100748.59;7282708;19;152625;-62
2022/05/11 07:42:10;;;;;;;;;;;;;;;21.83;45.96;100749.75;7289639;19;152504;-62
2022/05/11 07:44:38;;;;;;;;;;;;;;;21.80;45.88;100756.88;7284300;19;154338;-60
2022/05/11 07:47:05;;;;;;;;;;;;;;;21.78;45.85;100747.91;7280737;19;153939;-62
2022/05/11 07:49:34;;;;;;;;;;;;;;;21.77;45.96;100739.78;7283509;19;151697;-61
2022/05/11 07:52:00;;;;;;;;;;;;;;;21.74;45.81;100755.31;7281084;19;152448;-62
2022/05/11 07:54:29;;;;;;;;;;;;;;;21.71;45.37;100739.91;7281668;19;153619;-61
2022/05/11 08:02:09;;;;;;;;;;;;;;;21.64;45.84;100735.91;7282117;19;153504;-61
2022/05/11 08:04:38;;;;;;;;;;;;;;;21.62;45.86;100735.41;7290848;19;151491;-62
2022/05/11 08:07:05;;;;;;;;;;;;;;;21.62;45.97;100724.16;7287895;19;153566;-61
2022/05/11 08:12:00;;;;;;;;;;;;;;;21.58;45.79;100725.94;7289176;19;153409;-62
2022/05/11 08:14:27;;;;;;;;;;;;;;;21.56;45.65;100717.84;7286102;19;153238;-61
2022/05/11 08:16:54;;;;;;;;;;;;;;;21.55;45.71;100727.41;7289171;19;152063;-62
2022/05/11 08:19:22;;;;;;;;;;;;;;;21.53;45.42;100726.88;7289356;19;154038;-61
2022/05/11 08:21:50;;;;;;;;;;;;;;;21.52;45.73;100730.88;7286879;19;153322;-62
2022/05/11 08:24:17;;;;;;;;;;;;;;;21.52;45.74;100738.47;7289277;19;151654;-62
2022/05/11 08:26:46;;;;;;;;;;;;;;;21.50;45.65;100723.91;7295545;19;153654;-61
2022/05/11 08:33:19;;;;;;;;;;;;;;;21.49;45.17;100714.63;7286937;19;151743;-62
2022/05/11 08:34:37;;;;;;;;;;;;;;;21.46;45.12;100720.06;7286488;19;153375;-62
2022/05/11 08:37:04;;;;;;;;;;;;;;;21.45;45.54;100719.22;7289467;19;151946;-62
2022/05/11 08:39:31;;;;;;;;;;;;;;;21.45;45.39;100719.22;7288990;19;152747;-61
2022/05/11 08:42:00;;;;;;;;;;;;;;;21.42;45.03;100721.88;7288507;19;153547;-62
2022/05/11 08:44:32;;;;;;;;;;;;;;;21.40;45.53;100712.91;7288972;19;151964;-62
2022/05/11 08:47:00;;;;;;;;;;;;;;;21.39;45.16;100720.53;7287654;19;153561;-63
2022/05/11 08:49:37;;;;;;;;;;;;;;;21.36;45.15;100714.69;7294509;19;153360;-62
2022/05/11 08:52:05;;;;;;;;;;;;;;;21.35;45.03;100724.31;7288800;19;151834;-61
2022/05/11 08:54:33;;;;;;;;;;;;;;;21.36;45.06;100723.13;7286085;19;154492;-63
2022/05/11 08:57:01;;;;;;;;;;;;;;;21.33;45.09;100724.63;7289085;19;151749;-62
2022/05/11 08:59:30;;;;;;;;;;;;;;;21.33;44.86;100723.78;7284987;19;153007;-62
2022/05/11 09:02:03;;;;;;;;;;;;;;;21.31;45.24;100712.84;7288096;19;153364;-63
2022/05/11 09:04:37;;;;;;;;;;;;;;;21.29;45.23;100717.97;7285453;19;152171;-61
2022/05/11 09:07:04;;;;;;;;;;;;;;;21.30;44.92;100723.25;7289011;19;152974;-62
2022/05/11 09:09:31;;;;;;;;;;;;;;;21.28;44.75;100713.50;7289481;19;151917;-61
2022/05/11 09:11:58;;;;;;;;;;;;;;;21.24;44.72;100710.50;7288966;19;153658;-61
2022/05/11 09:14:30;;;;;;;;;;;;;;;21.23;44.81;100713.63;7287488;19;153545;-62
2022/05/11 09:16:57;;;;;;;;;;;;;;;21.23;45.08;100703.22;7284784;19;152126;-63
2022/05/11 09:19:28;;;;;;;;;;;;;;;21.20;44.66;100708.66;7278967;19;153337;-60
2022/05/11 09:21:57;;;;;;;;;;;;;;;21.19;44.73;100713.44;7274567;19;154341;-61
2022/05/11 09:24:34;;;;;;;;;;;;;;;21.19;44.75;100715.41;7277518;19;151953;-62
2022/05/11 09:27:03;;;;;;;;;;;;;;;21.18;44.90;100703.34;7284292;19;152859;-61
2022/05/11 09:29:32;;;;;;;;;;;;;;;21.18;44.74;100700.53;7282692;19;153333;-61
2022/05/11 09:32:19;;;;;;;;;;;;;;;21.14;44.87;100695.88;7290598;19;151957;-60
2022/05/11 09:34:46;;;;;;;;;;;;;;;21.13;45.13;100686.59;7280031;19;154376;-60
2022/05/11 09:37:25;;;;;;;;;;;;;;;21.12;44.82;100695.34;7284533;19;152109;-63
2022/05/11 09:39:54;;;;;;;;;;;;;;;21.11;45.00;100696.47;7285489;19;152718;-61
2022/05/11 09:42:29;;;;;;;;;;;;;;;21.14;44.99;100698.69;7284096;19;154723;-61
2022/05/11 09:44:56;;;;;;;;;;;;;;;21.12;44.69;100678.47;7285146;19;151781;-58
2022/05/11 09:47:25;;;;;;;;;;;;;;;21.09;44.98;100688.34;7284693;19;154184;-60
2022/05/11 09:49:53;;;;;;;;;;;;;;;21.08;44.95;100688.66;7283897;19;153628;-60
2022/05/11 09:52:31;;;;;;;;;;;;;;;21.10;44.66;100697.63;7284389;19;152004;-58
2022/05/11 09:54:58;;;;;;;;;;;;;;;21.07;44.75;100687.03;7289954;19;151756;-60
2022/05/11 09:57:28;;;;;;;;;;;;;;;21.04;44.79;100685.69;7284877;19;152139;-59
2022/05/11 10:00:14;;;;;;;;;;;;;;;21.03;44.98;100697.25;7281808;19;152956;-60
2022/05/11 10:02:43;;;;;;;;;;;;;;;20.99;44.83;100685.78;7281836;19;154529;-59
2022/05/11 10:05:20;;;;;;;;;;;;;;;20.97;44.96;100707.78;7282936;19;152374;-61
2022/05/11 10:07:53;;;;;;;;;;;;;;;20.97;44.88;100698.50;7284790;19;152472;-62
2022/05/11 10:10:20;;;;;;;;;;;;;;;20.98;45.20;100688.94;7281796;19;152778;-61
2022/05/11 10:12:48;;;;;;;;;;;;;;;21.00;45.11;100706.28;7285086;19;152046;-61
2022/05/11 10:23:35;;;;;;;;;;;;;;;20.94;44.68;100697.16;7283392;19;154430;-62
2022/05/11 10:26:05;;;;;;;;;;;;;;;20.92;45.14;100696.66;7284410;19;151762;-62
2022/05/11 10:28:39;;;;;;;;;;;;;;;20.91;45.07;100702.56;7284068;19;152604;-61
2022/05/11 10:31:22;;;;;;;;;;;;;;;20.94;45.22;100705.56;7280192;19;152749;-62
2022/05/11 10:33:57;;;;;;;;;;;;;;;20.88;45.05;100689.19;7282835;19;156504;-61
2022/05/11 10:36:32;;;;;;;;;;;;;;;20.91;45.06;100708.19;7281493;19;152751;-62
2022/05/11 10:39:07;;;;;;;;;;;;;;;20.89;44.93;100697.31;7283864;19;153280;-62
2022/05/11 10:41:41;;;;;;;;;;;;;;;20.90;44.98;100695.28;7288903;19;151989;-60
2022/05/11 10:44:19;;;;;;;;;;;;;;;20.90;45.11;100684.91;7282578;19;153420;-62
2022/05/11 10:46:55;;;;;;;;;;;;;;;20.86;45.33;100687.50;7283969;19;151732;-61
2022/05/11 10:49:32;;;;;;;;;;;;;;;20.84;45.52;100684.22;7284169;19;152457;-61
2022/05/11 10:52:07;;;;;;;;;;;;;;;20.87;45.55;100682.72;7280952;19;154837;-60
2022/05/11 10:54:45;;;;;;;;;;;;;;;20.83;45.86;100693.78;7282095;19;152341;-62
2022/05/11 10:57:19;;;;;;;;;;;;;;;20.84;45.60;100686.19;7281876;19;152774;-62
2022/05/11 10:59:53;;;;;;;;;;;;;;;20.81;45.57;100682.00;7278512;19;153143;-62
2022/05/11 11:02:29;;;;;;;;;;;;;;;20.80;46.00;100680.34;7274051;19;151732;-63
2022/05/11 11:04:57;;;;;;;;;;;;;;;20.79;46.18;100672.25;7289705;19;152718;-61
2022/05/11 11:07:31;;;;;;;;;;;;;;;20.77;46.33;100674.53;7282033;19;151677;-62
2022/05/11 11:10:07;;;;;;;;;;;;;;;20.77;45.99;100678.19;7283502;19;152010;-60
2022/05/11 11:12:34;;;;;;;;;;;;;;;20.77;46.47;100666.94;7282306;19;152189;-61
2022/05/11 11:15:02;;;;;;;;;;;;;;;20.77;46.44;100669.75;7282791;19;152576;-63
2022/05/11 11:17:31;;;;;;;;;;;;;;;20.77;46.76;100668.94;7280789;19;152770;-63
2022/05/11 11:20:01;;;;;;;;;;;;;;;20.80;46.60;100677.53;7282941;19;154395;-62
2022/05/11 11:22:28;;;;;;;;;;;;;;;20.78;46.62;100673.41;7273046;19;153056;-61
2022/05/11 11:25:14;;;;;;;;;;;;;;;20.77;46.70;100668.94;7289805;19;152759;-60
2022/05/11 11:27:51;;;;;;;;;;;;;;;20.76;46.84;100667.25;7280868;19;152292;-62
2022/05/11 11:30:21;;;;;;;;;;;;;;;20.74;46.82;100664.78;7283332;19;153782;-61
2022/05/11 11:32:58;;;;;;;;;;;;;;;20.71;47.22;100662.63;7282779;19;154253;-62
2022/05/11 11:35:34;;;;;;;;;;;;;;;20.72;47.13;100669.03;7278111;19;152063;-62
2022/05/11 11:38:02;;;;;;;;;;;;;;;20.75;47.47;100668.44;7282769;19;153614;-62
2022/05/11 11:40:29;;;;;;;;;;;;;;;20.71;47.79;100662.63;7278823;19;152943;-62
2022/05/11 11:42:56;;;;;;;;;;;;;;;20.73;47.63;100659.47;7288651;19;152072;-62
2022/05/11 11:45:24;;;;;;;;;;;;;;;20.72;47.69;100653.03;7287245;19;153059;-61
2022/05/11 11:47:59;;;;;;;;;;;;;;;20.70;47.79;100654.50;7295835;19;153291;-62
2022/05/11 11:50:36;;;;;;;;;;;;;;;20.69;48.23;100653.66;7288770;19;153215;-61
2022/05/11 11:53:07;;;;;;;;;;;;;;;20.69;48.29;100647.22;7288805;19;153319;-60
2022/05/11 11:55:34;;;;;;;;;;;;;;;20.66;48.03;100637.47;7287014;19;151571;-62
2022/05/11 11:58:10;;;;;;;;;;;;;;;20.64;48.41;100645.38;7288891;19;153495;-61
2022/05/11 12:00:46;;;;;;;;;;;;;;;20.68;48.05;100637.13;7289437;19;152222;-61
2022/05/11 12:03:17;;;;;;;;;;;;;;;20.68;48.29;100640.78;7288742;19;151732;-61
2022/05/11 12:05:46;;;;;;;;;;;;;;;20.66;48.73;100628.22;7288946;19;152078;-61
2022/05/11 12:15:01;;;;;;;;;;;;;;;20.66;49.23;100631.03;7296351;19;151684;-62
2022/05/11 12:16:20;;;;;;;;;;;;;;;20.64;48.80;100617.28;7289293;19;151850;-62
2022/05/11 12:18:47;;;;;;;;;;;;;;;20.67;49.07;100607.44;7288044;19;153498;-62
2022/05/11 12:21:24;;;;;;;;;;;;;;;20.63;49.43;100607.22;7284320;19;153869;-61
2022/05/11 12:23:51;;;;;;;;;;;;;;;20.60;49.75;100607.84;7287147;19;151782;-61
2022/05/11 12:26:27;;;;;;;;;;;;;;;20.66;49.83;100608.56;7285561;19;152895;-62
2022/05/11 12:29:54;;;;;;;;;;;;;;;20.68;50.02;100609.91;7287155;19;154656;-60
2022/05/11 12:31:52;;;;;;;;;;;;;;;20.63;49.90;100603.56;7287360;19;151720;-60
2022/05/11 12:34:21;;;;;;;;;;;;;;;20.65;50.10;100590.06;7294291;19;151792;-60
2022/05/11 12:36:50;;;;;;;;;;;;;;;20.65;49.73;100599.31;7282527;19;151931;-61
2022/05/11 12:39:27;;;;;;;;;;;;;;;20.64;49.91;100586.41;7287407;19;153839;-61
2022/05/11 12:41:54;;;;;;;;;;;;;;;20.64;49.76;100603.25;7286219;19;154331;-62
2022/05/11 12:44:25;;;;;;;;;;;;;;;20.63;49.90;100586.72;7285346;19;151915;-60
2022/05/11 12:46:54;;;;;;;;;;;;;;;20.63;50.28;100593.16;7287129;19;153071;-59
2022/05/11 12:49:21;;;;;;;;;;;;;;;20.62;50.41;100590.69;7285305;19;153896;-58
2022/05/11 12:51:52;;;;;;;;;;;;;;;20.62;50.36;100590.69;7286272;19;152381;-58
2022/05/11 12:54:20;;;;;;;;;;;;;;;20.60;50.60;100581.75;7287077;19;152236;-60
2022/05/11 12:56:55;;;;;;;;;;;;;;;20.58;50.70;100593.28;7290347;19;152315;-60
2022/05/11 12:59:24;;;;;;;;;;;;;;;20.59;50.35;100586.53;7287351;19;153197;-59
2022/05/11 13:01:52;;;;;;;;;;;;;;;20.54;50.68;100581.03;7283753;19;153283;-60
2022/05/11 13:04:20;;;;;;;;;;;;;;;20.59;50.07;100586.53;7285716;19;151740;-58
2022/05/11 13:06:50;;;;;;;;;;;;;;;20.57;50.33;100588.84;7284160;19;152559;-59
2022/05/11 13:09:17;;;;;;;;;;;;;;;20.59;50.23;100575.31;7283757;19;152448;-59
2022/05/11 13:11:45;;;;;;;;;;;;;;;20.63;50.81;100581.94;7287472;19;152000;-59
2022/05/11 13:14:16;;;;;;;;;;;;;;;20.66;50.69;100581.31;7286078;19;152853;-60
2022/05/11 13:16:48;;;;;;;;;;;;;;;20.71;51.62;100578.41;7284870;19;154162;-60
2022/05/11 13:19:25;;;;;;;;;;;;;;;20.77;51.30;100577.09;7293484;19;152014;-60
2022/05/11 13:21:54;;;;;;;;;;;;;;;20.84;51.63;100562.63;7282555;19;154341;-60
2022/05/11 13:24:30;;;;;;;;;;;;;;;20.89;50.92;100567.28;7285255;19;152090;-60